sensor_id;sensor_type;location;lat;lon;timestamp;P1;durP1;ratioP1;P2;durP2;ratioP2
9304;SDS011;4690;52.422;13.486;2023-05-27T00:05:25;9.63;;;4.43;;
9304;SDS011;4690;52.422;13.486;2023-05-27T00:07:51;7.53;;;3.90;;
9304;SDS011;4690;52.422;13.486;2023-05-27T00:10:16;8.03;;;4.07;;
9304;SDS011;4690;52.422;13.486;2023-05-27T00:12:42;7.83;;;3.70;;
9304;SDS011;4690;52.422;13.486;2023-05-27T00:15:08;6.23;;;3.87;;
9304;SDS011;4690;52.422;13.486;2023-05-27T00:17:34;8.17;;;4.10;;
9304;SDS011;4690;52.422;13.486;2023-05-27T00:20:00;8.53;;;3.83;;
9304;SDS011;4690;52.422;13.486;2023-05-27T00:22:32;7.57;;;3.77;;
9304;SDS011;4690;52.422;13.486;2023-05-27T00:24:59;6.80;;;3.70;;
9304;SDS011;4690;52.422;13.486;2023-05-27T00:27:25;10.20;;;4.30;;
9304;SDS011;4690;52.422;13.486;2023-05-27T00:29:51;9.70;;;4.20;;
9304;SDS011;4690;52.422;13.486;2023-05-27T00:32:17;10.00;;;4.40;;
9304;SDS011;4690;52.422;13.486;2023-05-27T00:34:42;6.57;;;3.77;;
9304;SDS011;4690;52.422;13.486;2023-05-27T00:37:09;7.50;;;3.97;;
9304;SDS011;4690;52.422;13.486;2023-05-27T00:39:35;7.17;;;4.00;;
9304;SDS011;4690;52.422;13.486;2023-05-27T00:42:01;7.20;;;3.83;;
9304;SDS011;4690;52.422;13.486;2023-05-27T00:44:27;8.47;;;3.90;;
9304;SDS011;4690;52.422;13.486;2023-05-27T00:46:53;8.13;;;4.20;;
9304;SDS011;4690;52.422;13.486;2023-05-27T00:49:19;7.77;;;4.33;;
9304;SDS011;4690;52.422;13.486;2023-05-27T00:51:45;8.13;;;4.40;;
9304;SDS011;4690;52.422;13.486;2023-05-27T00:54:11;7.70;;;4.30;;
9304;SDS011;4690;52.422;13.486;2023-05-27T00:56:37;9.20;;;3.97;;
9304;SDS011;4690;52.422;13.486;2023-05-27T00:59:03;10.50;;;4.70;;
9304;SDS011;4690;52.422;13.486;2023-05-27T01:01:29;8.50;;;4.23;;
9304;SDS011;4690;52.422;13.486;2023-05-27T01:03:55;8.13;;;4.40;;
9304;SDS011;4690;52.422;13.486;2023-05-27T01:12:07;9.83;;;4.47;;
9304;SDS011;4690;52.422;13.486;2023-05-27T01:14:49;9.50;;;4.33;;
9304;SDS011;4690;52.422;13.486;2023-05-27T01:17:19;6.73;;;4.07;;
9304;SDS011;4690;52.422;13.486;2023-05-27T01:19:49;7.13;;;3.90;;
9304;SDS011;4690;52.422;13.486;2023-05-27T01:22:17;7.73;;;4.00;;
9304;SDS011;4690;52.422;13.486;2023-05-27T01:24:45;7.50;;;4.37;;
9304;SDS011;4690;52.422;13.486;2023-05-27T01:27:11;7.30;;;4.30;;
9304;SDS011;4690;52.422;13.486;2023-05-27T01:29:41;8.73;;;4.40;;
9304;SDS011;4690;52.422;13.486;2023-05-27T01:38:07;7.83;;;4.30;;
9304;SDS011;4690;52.422;13.486;2023-05-27T01:40:38;10.93;;;4.50;;
9304;SDS011;4690;52.422;13.486;2023-05-27T01:43:06;6.67;;;3.87;;
9304;SDS011;4690;52.422;13.486;2023-05-27T01:45:34;8.03;;;4.17;;
9304;SDS011;4690;52.422;13.486;2023-05-27T01:48:00;8.07;;;4.10;;
9304;SDS011;4690;52.422;13.486;2023-05-27T01:50:26;9.57;;;4.33;;
9304;SDS011;4690;52.422;13.486;2023-05-27T01:52:54;9.37;;;4.40;;
9304;SDS011;4690;52.422;13.486;2023-05-27T01:55:20;10.40;;;4.67;;
9304;SDS011;4690;52.422;13.486;2023-05-27T01:57:46;9.37;;;4.30;;
9304;SDS011;4690;52.422;13.486;2023-05-27T02:00:15;7.93;;;4.17;;
9304;SDS011;4690;52.422;13.486;2023-05-27T02:02:41;8.27;;;4.13;;
9304;SDS011;4690;52.422;13.486;2023-05-27T02:05:07;8.23;;;4.70;;
9304;SDS011;4690;52.422;13.486;2023-05-27T02:07:33;8.53;;;4.70;;
9304;SDS011;4690;52.422;13.486;2023-05-27T02:09:59;8.40;;;4.47;;
9304;SDS011;4690;52.422;13.486;2023-05-27T02:12:25;8.30;;;4.47;;
9304;SDS011;4690;52.422;13.486;2023-05-27T02:14:51;7.77;;;4.27;;
9304;SDS011;4690;52.422;13.486;2023-05-27T02:17:17;7.37;;;4.23;;
9304;SDS011;4690;52.422;13.486;2023-05-27T02:19:43;8.87;;;4.13;;
9304;SDS011;4690;52.422;13.486;2023-05-27T02:22:08;7.87;;;4.10;;
9304;SDS011;4690;52.422;13.486;2023-05-27T02:24:34;7.03;;;4.17;;
9304;SDS011;4690;52.422;13.486;2023-05-27T02:27:00;9.83;;;4.53;;
9304;SDS011;4690;52.422;13.486;2023-05-27T02:29:27;9.40;;;4.57;;
9304;SDS011;4690;52.422;13.486;2023-05-27T02:31:52;9.10;;;4.77;;
9304;SDS011;4690;52.422;13.486;2023-05-27T02:34:18;12.13;;;5.57;;
9304;SDS011;4690;52.422;13.486;2023-05-27T02:36:44;9.20;;;4.73;;
9304;SDS011;4690;52.422;13.486;2023-05-27T02:39:10;10.40;;;4.63;;
9304;SDS011;4690;52.422;13.486;2023-05-27T02:41:36;7.13;;;4.30;;
9304;SDS011;4690;52.422;13.486;2023-05-27T02:44:02;9.97;;;4.60;;
9304;SDS011;4690;52.422;13.486;2023-05-27T02:46:28;10.77;;;4.90;;
9304;SDS011;4690;52.422;13.486;2023-05-27T02:48:54;7.83;;;4.30;;
9304;SDS011;4690;52.422;13.486;2023-05-27T02:51:21;8.93;;;4.50;;
9304;SDS011;4690;52.422;13.486;2023-05-27T02:53:47;9.13;;;4.13;;
9304;SDS011;4690;52.422;13.486;2023-05-27T02:56:15;9.30;;;5.00;;
9304;SDS011;4690;52.422;13.486;2023-05-27T02:58:41;6.93;;;4.53;;
9304;SDS011;4690;52.422;13.486;2023-05-27T03:01:06;10.60;;;4.80;;
9304;SDS011;4690;52.422;13.486;2023-05-27T03:03:32;9.57;;;5.03;;
9304;SDS011;4690;52.422;13.486;2023-05-27T03:05:58;8.93;;;4.77;;
9304;SDS011;4690;52.422;13.486;2023-05-27T03:08:23;6.30;;;4.30;;
9304;SDS011;4690;52.422;13.486;2023-05-27T03:10:49;9.10;;;4.73;;
9304;SDS011;4690;52.422;13.486;2023-05-27T03:13:16;10.07;;;4.70;;
9304;SDS011;4690;52.422;13.486;2023-05-27T03:15:41;9.57;;;4.40;;
9304;SDS011;4690;52.422;13.486;2023-05-27T03:18:07;8.93;;;4.90;;
9304;SDS011;4690;52.422;13.486;2023-05-27T03:20:33;11.07;;;4.90;;
9304;SDS011;4690;52.422;13.486;2023-05-27T03:22:59;8.90;;;4.40;;
9304;SDS011;4690;52.422;13.486;2023-05-27T03:25:25;9.97;;;4.80;;
9304;SDS011;4690;52.422;13.486;2023-05-27T03:27:51;10.13;;;4.60;;
9304;SDS011;4690;52.422;13.486;2023-05-27T03:30:18;8.67;;;4.70;;
9304;SDS011;4690;52.422;13.486;2023-05-27T03:32:44;10.40;;;5.27;;
9304;SDS011;4690;52.422;13.486;2023-05-27T03:35:10;6.67;;;4.23;;
9304;SDS011;4690;52.422;13.486;2023-05-27T03:37:36;10.70;;;5.10;;
9304;SDS011;4690;52.422;13.486;2023-05-27T03:40:02;9.40;;;4.87;;
9304;SDS011;4690;52.422;13.486;2023-05-27T03:42:28;10.80;;;5.07;;
9304;SDS011;4690;52.422;13.486;2023-05-27T03:44:54;13.83;;;5.30;;
9304;SDS011;4690;52.422;13.486;2023-05-27T03:47:20;9.03;;;4.83;;
9304;SDS011;4690;52.422;13.486;2023-05-27T03:49:46;10.53;;;4.90;;
9304;SDS011;4690;52.422;13.486;2023-05-27T03:52:13;9.20;;;5.30;;
9304;SDS011;4690;52.422;13.486;2023-05-27T03:54:40;8.47;;;4.57;;
9304;SDS011;4690;52.422;13.486;2023-05-27T03:57:06;9.93;;;5.17;;
9304;SDS011;4690;52.422;13.486;2023-05-27T03:59:33;10.33;;;4.90;;
9304;SDS011;4690;52.422;13.486;2023-05-27T04:01:59;7.10;;;4.50;;
9304;SDS011;4690;52.422;13.486;2023-05-27T04:04:25;10.57;;;5.20;;
9304;SDS011;4690;52.422;13.486;2023-05-27T04:06:51;9.03;;;4.90;;
9304;SDS011;4690;52.422;13.486;2023-05-27T04:09:18;8.67;;;4.80;;
9304;SDS011;4690;52.422;13.486;2023-05-27T04:11:44;11.03;;;5.20;;
9304;SDS011;4690;52.422;13.486;2023-05-27T04:14:10;13.07;;;4.87;;
9304;SDS011;4690;52.422;13.486;2023-05-27T04:16:36;8.23;;;4.57;;
9304;SDS011;4690;52.422;13.486;2023-05-27T04:19:02;13.03;;;5.73;;
9304;SDS011;4690;52.422;13.486;2023-05-27T04:21:28;8.93;;;5.13;;
9304;SDS011;4690;52.422;13.486;2023-05-27T04:23:54;9.03;;;4.97;;
9304;SDS011;4690;52.422;13.486;2023-05-27T04:26:20;10.33;;;5.47;;
9304;SDS011;4690;52.422;13.486;2023-05-27T04:28:45;10.27;;;4.90;;
9304;SDS011;4690;52.422;13.486;2023-05-27T04:31:12;10.70;;;4.97;;
9304;SDS011;4690;52.422;13.486;2023-05-27T04:33:41;12.10;;;5.40;;
9304;SDS011;4690;52.422;13.486;2023-05-27T04:36:07;9.00;;;4.60;;
9304;SDS011;4690;52.422;13.486;2023-05-27T04:38:34;11.30;;;5.07;;
9304;SDS011;4690;52.422;13.486;2023-05-27T04:41:00;9.80;;;5.17;;
9304;SDS011;4690;52.422;13.486;2023-05-27T04:43:26;7.70;;;4.50;;
9304;SDS011;4690;52.422;13.486;2023-05-27T04:45:54;12.87;;;5.17;;
9304;SDS011;4690;52.422;13.486;2023-05-27T04:48:22;11.20;;;5.37;;
9304;SDS011;4690;52.422;13.486;2023-05-27T04:50:51;8.30;;;4.50;;
9304;SDS011;4690;52.422;13.486;2023-05-27T04:53:20;12.57;;;5.20;;
9304;SDS011;4690;52.422;13.486;2023-05-27T04:55:46;8.30;;;4.83;;
9304;SDS011;4690;52.422;13.486;2023-05-27T04:58:12;15.13;;;5.87;;
9304;SDS011;4690;52.422;13.486;2023-05-27T05:00:38;13.67;;;5.43;;
9304;SDS011;4690;52.422;13.486;2023-05-27T05:03:14;14.90;;;5.87;;
9304;SDS011;4690;52.422;13.486;2023-05-27T05:05:47;11.23;;;5.67;;
9304;SDS011;4690;52.422;13.486;2023-05-27T05:08:16;13.80;;;5.57;;
9304;SDS011;4690;52.422;13.486;2023-05-27T05:10:43;10.83;;;5.23;;
9304;SDS011;4690;52.422;13.486;2023-05-27T05:13:11;10.27;;;4.30;;
9304;SDS011;4690;52.422;13.486;2023-05-27T05:15:38;13.00;;;5.10;;
9304;SDS011;4690;52.422;13.486;2023-05-27T05:18:05;13.97;;;5.37;;
9304;SDS011;4690;52.422;13.486;2023-05-27T05:20:31;10.43;;;5.03;;
9304;SDS011;4690;52.422;13.486;2023-05-27T05:22:57;18.53;;;6.07;;
9304;SDS011;4690;52.422;13.486;2023-05-27T05:25:23;12.43;;;5.27;;
9304;SDS011;4690;52.422;13.486;2023-05-27T05:27:51;10.83;;;4.70;;
9304;SDS011;4690;52.422;13.486;2023-05-27T05:30:17;15.43;;;5.13;;
9304;SDS011;4690;52.422;13.486;2023-05-27T05:32:43;11.00;;;5.07;;
9304;SDS011;4690;52.422;13.486;2023-05-27T05:35:09;13.10;;;5.17;;
9304;SDS011;4690;52.422;13.486;2023-05-27T05:37:34;14.87;;;5.50;;
9304;SDS011;4690;52.422;13.486;2023-05-27T05:40:00;13.23;;;5.23;;
9304;SDS011;4690;52.422;13.486;2023-05-27T05:42:27;13.50;;;4.90;;
9304;SDS011;4690;52.422;13.486;2023-05-27T05:44:52;12.57;;;4.97;;
9304;SDS011;4690;52.422;13.486;2023-05-27T05:47:18;11.47;;;5.03;;
9304;SDS011;4690;52.422;13.486;2023-05-27T05:49:44;7.00;;;4.17;;
9304;SDS011;4690;52.422;13.486;2023-05-27T05:52:10;11.00;;;4.70;;
9304;SDS011;4690;52.422;13.486;2023-05-27T05:54:36;10.73;;;4.27;;
9304;SDS011;4690;52.422;13.486;2023-05-27T05:57:01;10.97;;;4.70;;
9304;SDS011;4690;52.422;13.486;2023-05-27T05:59:27;12.57;;;4.57;;
9304;SDS011;4690;52.422;13.486;2023-05-27T06:01:53;14.00;;;4.70;;
9304;SDS011;4690;52.422;13.486;2023-05-27T06:04:19;12.30;;;4.87;;
9304;SDS011;4690;52.422;13.486;2023-05-27T06:06:45;10.03;;;4.20;;
9304;SDS011;4690;52.422;13.486;2023-05-27T06:09:11;11.30;;;4.30;;
9304;SDS011;4690;52.422;13.486;2023-05-27T06:11:37;10.00;;;4.13;;
9304;SDS011;4690;52.422;13.486;2023-05-27T06:14:03;9.10;;;3.92;;
9304;SDS011;4690;52.422;13.486;2023-05-27T06:16:29;10.32;;;4.15;;
9304;SDS011;4690;52.422;13.486;2023-05-27T06:18:55;7.87;;;3.23;;
9304;SDS011;4690;52.422;13.486;2023-05-27T06:21:20;8.52;;;3.97;;
9304;SDS011;4690;52.422;13.486;2023-05-27T06:23:46;6.72;;;3.15;;
9304;SDS011;4690;52.422;13.486;2023-05-27T06:26:12;5.97;;;2.85;;
9304;SDS011;4690;52.422;13.486;2023-05-27T06:28:39;7.57;;;3.28;;
9304;SDS011;4690;52.422;13.486;2023-05-27T06:31:05;6.43;;;2.97;;
9304;SDS011;4690;52.422;13.486;2023-05-27T06:33:31;6.40;;;3.00;;
9304;SDS011;4690;52.422;13.486;2023-05-27T06:35:58;8.30;;;2.90;;
9304;SDS011;4690;52.422;13.486;2023-05-27T06:38:23;9.05;;;2.70;;
9304;SDS011;4690;52.422;13.486;2023-05-27T06:40:49;5.32;;;2.85;;
9304;SDS011;4690;52.422;13.486;2023-05-27T06:43:16;6.15;;;2.42;;
9304;SDS011;4690;52.422;13.486;2023-05-27T06:45:41;6.75;;;2.33;;
9304;SDS011;4690;52.422;13.486;2023-05-27T06:48:07;4.03;;;2.50;;
9304;SDS011;4690;52.422;13.486;2023-05-27T06:50:33;8.50;;;2.67;;
9304;SDS011;4690;52.422;13.486;2023-05-27T06:52:59;5.20;;;2.67;;
9304;SDS011;4690;52.422;13.486;2023-05-27T06:55:25;4.85;;;2.47;;
9304;SDS011;4690;52.422;13.486;2023-05-27T06:57:51;5.60;;;2.50;;
9304;SDS011;4690;52.422;13.486;2023-05-27T07:00:16;4.38;;;2.58;;
9304;SDS011;4690;52.422;13.486;2023-05-27T07:02:43;5.70;;;2.50;;
9304;SDS011;4690;52.422;13.486;2023-05-27T07:05:08;5.75;;;2.20;;
9304;SDS011;4690;52.422;13.486;2023-05-27T07:07:34;4.30;;;2.50;;
9304;SDS011;4690;52.422;13.486;2023-05-27T07:10:00;8.55;;;2.63;;
9304;SDS011;4690;52.422;13.486;2023-05-27T07:12:26;5.07;;;2.60;;
9304;SDS011;4690;52.422;13.486;2023-05-27T07:14:51;4.93;;;2.47;;
9304;SDS011;4690;52.422;13.486;2023-05-27T07:17:17;5.60;;;2.22;;
9304;SDS011;4690;52.422;13.486;2023-05-27T07:19:43;3.38;;;1.83;;
9304;SDS011;4690;52.422;13.486;2023-05-27T07:22:09;2.55;;;1.75;;
9304;SDS011;4690;52.422;13.486;2023-05-27T07:24:34;4.57;;;1.90;;
9304;SDS011;4690;52.422;13.486;2023-05-27T07:27:00;3.45;;;2.00;;
9304;SDS011;4690;52.422;13.486;2023-05-27T07:29:26;2.88;;;2.03;;
9304;SDS011;4690;52.422;13.486;2023-05-27T07:31:52;5.15;;;2.20;;
9304;SDS011;4690;52.422;13.486;2023-05-27T07:34:18;3.25;;;1.80;;
9304;SDS011;4690;52.422;13.486;2023-05-27T07:36:45;2.25;;;1.83;;
9304;SDS011;4690;52.422;13.486;2023-05-27T07:39:11;3.80;;;1.95;;
9304;SDS011;4690;52.422;13.486;2023-05-27T07:41:37;2.60;;;1.70;;
9304;SDS011;4690;52.422;13.486;2023-05-27T07:44:03;1.67;;;1.55;;
9304;SDS011;4690;52.422;13.486;2023-05-27T07:46:28;2.78;;;1.80;;
9304;SDS011;4690;52.422;13.486;2023-05-27T07:48:55;2.88;;;1.90;;
9304;SDS011;4690;52.422;13.486;2023-05-27T07:51:20;2.47;;;1.80;;
9304;SDS011;4690;52.422;13.486;2023-05-27T07:53:48;1.48;;;1.35;;
9304;SDS011;4690;52.422;13.486;2023-05-27T07:56:14;2.05;;;1.70;;
9304;SDS011;4690;52.422;13.486;2023-05-27T07:58:40;1.85;;;1.60;;
9304;SDS011;4690;52.422;13.486;2023-05-27T08:01:05;2.15;;;1.65;;
9304;SDS011;4690;52.422;13.486;2023-05-27T08:03:31;3.85;;;1.67;;
9304;SDS011;4690;52.422;13.486;2023-05-27T08:05:57;2.47;;;1.70;;
9304;SDS011;4690;52.422;13.486;2023-05-27T08:08:23;2.55;;;1.63;;
9304;SDS011;4690;52.422;13.486;2023-05-27T08:10:48;2.88;;;1.63;;
9304;SDS011;4690;52.422;13.486;2023-05-27T08:13:14;4.57;;;1.65;;
9304;SDS011;4690;52.422;13.486;2023-05-27T08:15:40;2.50;;;1.52;;
9304;SDS011;4690;52.422;13.486;2023-05-27T08:18:06;1.67;;;1.50;;
9304;SDS011;4690;52.422;13.486;2023-05-27T08:20:31;1.58;;;1.48;;
9304;SDS011;4690;52.422;13.486;2023-05-27T08:22:57;2.70;;;1.60;;
9304;SDS011;4690;52.422;13.486;2023-05-27T08:25:23;1.80;;;1.40;;
9304;SDS011;4690;52.422;13.486;2023-05-27T08:30:22;2.47;;;1.58;;
9304;SDS011;4690;52.422;13.486;2023-05-27T08:32:48;1.90;;;1.40;;
9304;SDS011;4690;52.422;13.486;2023-05-27T08:35:14;1.70;;;1.60;;
9304;SDS011;4690;52.422;13.486;2023-05-27T08:37:40;2.08;;;1.55;;
9304;SDS011;4690;52.422;13.486;2023-05-27T08:40:24;2.72;;;1.70;;
9304;SDS011;4690;52.422;13.486;2023-05-27T08:42:49;1.73;;;1.58;;
9304;SDS011;4690;52.422;13.486;2023-05-27T08:45:16;1.92;;;1.63;;
9304;SDS011;4690;52.422;13.486;2023-05-27T08:47:42;1.95;;;1.60;;
9304;SDS011;4690;52.422;13.486;2023-05-27T08:50:08;2.05;;;1.55;;
9304;SDS011;4690;52.422;13.486;2023-05-27T08:52:37;2.03;;;1.70;;
9304;SDS011;4690;52.422;13.486;2023-05-27T08:55:11;2.90;;;1.58;;
9304;SDS011;4690;52.422;13.486;2023-05-27T08:57:46;1.83;;;1.50;;
9304;SDS011;4690;52.422;13.486;2023-05-27T09:00:22;1.60;;;1.50;;
9304;SDS011;4690;52.422;13.486;2023-05-27T09:02:50;1.83;;;1.40;;
9304;SDS011;4690;52.422;13.486;2023-05-27T09:05:16;1.90;;;1.60;;
9304;SDS011;4690;52.422;13.486;2023-05-27T09:07:42;5.00;;;1.67;;
9304;SDS011;4690;52.422;13.486;2023-05-27T09:10:10;2.13;;;1.70;;
9304;SDS011;4690;52.422;13.486;2023-05-27T09:12:36;2.83;;;1.92;;
9304;SDS011;4690;52.422;13.486;2023-05-27T09:15:02;3.40;;;1.88;;
9304;SDS011;4690;52.422;13.486;2023-05-27T09:17:29;2.13;;;1.55;;
9304;SDS011;4690;52.422;13.486;2023-05-27T09:19:55;1.73;;;1.42;;
9304;SDS011;4690;52.422;13.486;2023-05-27T09:24:56;3.30;;;1.80;;
9304;SDS011;4690;52.422;13.486;2023-05-27T09:27:26;3.15;;;1.75;;
9304;SDS011;4690;52.422;13.486;2023-05-27T09:29:55;2.40;;;1.60;;
9304;SDS011;4690;52.422;13.486;2023-05-27T09:34:59;4.20;;;1.67;;
9304;SDS011;4690;52.422;13.486;2023-05-27T09:37:27;2.55;;;1.80;;
9304;SDS011;4690;52.422;13.486;2023-05-27T09:39:57;4.70;;;2.13;;
9304;SDS011;4690;52.422;13.486;2023-05-27T09:42:24;2.17;;;1.85;;
9304;SDS011;4690;52.422;13.486;2023-05-27T09:44:50;3.28;;;1.80;;
9304;SDS011;4690;52.422;13.486;2023-05-27T09:47:20;1.67;;;1.58;;
9304;SDS011;4690;52.422;13.486;2023-05-27T09:49:48;2.00;;;1.60;;
9304;SDS011;4690;52.422;13.486;2023-05-27T09:52:18;1.80;;;1.70;;
9304;SDS011;4690;52.422;13.486;2023-05-27T09:54:46;1.90;;;1.63;;
9304;SDS011;4690;52.422;13.486;2023-05-27T09:57:14;4.40;;;1.73;;
9304;SDS011;4690;52.422;13.486;2023-05-27T09:59:41;2.10;;;1.70;;
9304;SDS011;4690;52.422;13.486;2023-05-27T10:02:10;3.05;;;1.95;;
9304;SDS011;4690;52.422;13.486;2023-05-27T10:04:42;3.33;;;1.95;;
9304;SDS011;4690;52.422;13.486;2023-05-27T10:07:09;2.17;;;1.98;;
9304;SDS011;4690;52.422;13.486;2023-05-27T10:09:37;3.65;;;2.00;;
9304;SDS011;4690;52.422;13.486;2023-05-27T10:12:03;2.85;;;2.00;;
9304;SDS011;4690;52.422;13.486;2023-05-27T10:14:30;2.80;;;1.83;;
9304;SDS011;4690;52.422;13.486;2023-05-27T10:16:57;5.55;;;2.15;;
9304;SDS011;4690;52.422;13.486;2023-05-27T10:19:23;2.42;;;2.00;;
9304;SDS011;4690;52.422;13.486;2023-05-27T10:21:48;2.42;;;2.10;;
9304;SDS011;4690;52.422;13.486;2023-05-27T10:24:14;3.85;;;2.00;;
9304;SDS011;4690;52.422;13.486;2023-05-27T10:26:41;4.30;;;2.08;;
9304;SDS011;4690;52.422;13.486;2023-05-27T10:31:46;2.35;;;2.10;;
9304;SDS011;4690;52.422;13.486;2023-05-27T10:34:16;2.72;;;2.10;;
9304;SDS011;4690;52.422;13.486;2023-05-27T10:36:44;2.38;;;1.80;;
9304;SDS011;4690;52.422;13.486;2023-05-27T10:39:14;2.92;;;1.88;;
9304;SDS011;4690;52.422;13.486;2023-05-27T10:41:49;2.45;;;1.90;;
9304;SDS011;4690;52.422;13.486;2023-05-27T10:44:25;2.10;;;1.90;;
9304;SDS011;4690;52.422;13.486;2023-05-27T10:47:02;2.35;;;2.15;;
9304;SDS011;4690;52.422;13.486;2023-05-27T10:49:37;4.03;;;2.30;;
9304;SDS011;4690;52.422;13.486;2023-05-27T10:52:05;3.83;;;2.40;;
9304;SDS011;4690;52.422;13.486;2023-05-27T10:54:37;2.60;;;2.40;;
9304;SDS011;4690;52.422;13.486;2023-05-27T10:57:08;2.40;;;2.20;;
9304;SDS011;4690;52.422;13.486;2023-05-27T10:59:53;2.22;;;2.03;;
9304;SDS011;4690;52.422;13.486;2023-05-27T11:02:23;2.45;;;2.15;;
9304;SDS011;4690;52.422;13.486;2023-05-27T11:04:53;2.33;;;2.13;;
9304;SDS011;4690;52.422;13.486;2023-05-27T11:07:20;2.60;;;2.28;;
9304;SDS011;4690;52.422;13.486;2023-05-27T11:12:21;2.78;;;2.47;;
9304;SDS011;4690;52.422;13.486;2023-05-27T11:14:53;4.35;;;2.30;;
9304;SDS011;4690;52.422;13.486;2023-05-27T11:17:20;2.70;;;2.40;;
9304;SDS011;4690;52.422;13.486;2023-05-27T11:19:47;2.63;;;2.42;;
9304;SDS011;4690;52.422;13.486;2023-05-27T11:22:17;3.50;;;2.25;;
9304;SDS011;4690;52.422;13.486;2023-05-27T11:25:00;4.40;;;2.40;;
9304;SDS011;4690;52.422;13.486;2023-05-27T11:27:32;3.15;;;2.30;;
9304;SDS011;4690;52.422;13.486;2023-05-27T11:30:05;2.97;;;2.10;;
9304;SDS011;4690;52.422;13.486;2023-05-27T11:32:36;2.47;;;2.10;;
9304;SDS011;4690;52.422;13.486;2023-05-27T11:35:03;2.50;;;2.30;;
9304;SDS011;4690;52.422;13.486;2023-05-27T11:37:34;3.13;;;2.20;;
9304;SDS011;4690;52.422;13.486;2023-05-27T11:40:00;2.33;;;2.05;;
9304;SDS011;4690;52.422;13.486;2023-05-27T11:42:27;2.45;;;2.22;;
9304;SDS011;4690;52.422;13.486;2023-05-27T11:44:54;2.85;;;2.30;;
9304;SDS011;4690;52.422;13.486;2023-05-27T11:47:21;4.20;;;2.28;;
9304;SDS011;4690;52.422;13.486;2023-05-27T11:49:50;3.65;;;2.30;;
9304;SDS011;4690;52.422;13.486;2023-05-27T11:52:17;3.33;;;2.42;;
9304;SDS011;4690;52.422;13.486;2023-05-27T11:54:43;3.05;;;2.10;;
9304;SDS011;4690;52.422;13.486;2023-05-27T11:57:09;2.58;;;2.38;;
9304;SDS011;4690;52.422;13.486;2023-05-27T11:59:35;2.65;;;2.25;;
9304;SDS011;4690;52.422;13.486;2023-05-27T12:02:02;4.35;;;2.40;;
9304;SDS011;4690;52.422;13.486;2023-05-27T12:04:29;2.45;;;2.13;;
9304;SDS011;4690;52.422;13.486;2023-05-27T12:06:55;3.47;;;2.10;;
9304;SDS011;4690;52.422;13.486;2023-05-27T12:09:25;3.30;;;2.20;;
9304;SDS011;4690;52.422;13.486;2023-05-27T12:11:52;2.08;;;1.88;;
9304;SDS011;4690;52.422;13.486;2023-05-27T12:14:18;2.67;;;2.10;;
9304;SDS011;4690;52.422;13.486;2023-05-27T12:16:45;2.60;;;2.17;;
9304;SDS011;4690;52.422;13.486;2023-05-27T12:19:11;4.03;;;2.28;;
9304;SDS011;4690;52.422;13.486;2023-05-27T12:21:37;2.70;;;2.13;;
9304;SDS011;4690;52.422;13.486;2023-05-27T12:24:03;2.13;;;1.92;;
9304;SDS011;4690;52.422;13.486;2023-05-27T12:26:30;3.65;;;2.13;;
9304;SDS011;4690;52.422;13.486;2023-05-27T12:28:56;3.42;;;2.00;;
9304;SDS011;4690;52.422;13.486;2023-05-27T12:31:22;2.25;;;2.08;;
9304;SDS011;4690;52.422;13.486;2023-05-27T12:33:49;2.75;;;2.10;;
9304;SDS011;4690;52.422;13.486;2023-05-27T12:36:15;2.83;;;2.10;;
9304;SDS011;4690;52.422;13.486;2023-05-27T12:38:41;2.50;;;2.03;;
9304;SDS011;4690;52.422;13.486;2023-05-27T12:41:07;3.90;;;2.05;;
9304;SDS011;4690;52.422;13.486;2023-05-27T12:43:33;2.83;;;2.13;;
9304;SDS011;4690;52.422;13.486;2023-05-27T12:45:58;3.33;;;2.10;;
9304;SDS011;4690;52.422;13.486;2023-05-27T12:48:24;2.30;;;2.10;;
9304;SDS011;4690;52.422;13.486;2023-05-27T12:50:50;2.20;;;2.00;;
9304;SDS011;4690;52.422;13.486;2023-05-27T12:53:16;2.47;;;2.28;;
9304;SDS011;4690;52.422;13.486;2023-05-27T12:55:42;2.10;;;1.90;;
9304;SDS011;4690;52.422;13.486;2023-05-27T12:58:11;5.80;;;2.33;;
9304;SDS011;4690;52.422;13.486;2023-05-27T13:00:37;2.55;;;2.15;;
9304;SDS011;4690;52.422;13.486;2023-05-27T13:03:03;2.00;;;1.85;;
9304;SDS011;4690;52.422;13.486;2023-05-27T13:05:29;3.75;;;2.20;;
9304;SDS011;4690;52.422;13.486;2023-05-27T13:07:58;3.50;;;2.00;;
9304;SDS011;4690;52.422;13.486;2023-05-27T13:10:27;2.83;;;2.15;;
9304;SDS011;4690;52.422;13.486;2023-05-27T13:12:54;2.35;;;2.00;;
9304;SDS011;4690;52.422;13.486;2023-05-27T13:15:21;2.33;;;2.00;;
9304;SDS011;4690;52.422;13.486;2023-05-27T13:17:49;3.30;;;2.17;;
9304;SDS011;4690;52.422;13.486;2023-05-27T13:20:17;2.47;;;2.00;;
9304;SDS011;4690;52.422;13.486;2023-05-27T13:22:45;3.03;;;2.22;;
9304;SDS011;4690;52.422;13.486;2023-05-27T13:25:13;4.03;;;2.20;;
9304;SDS011;4690;52.422;13.486;2023-05-27T13:27:40;2.50;;;2.03;;
9304;SDS011;4690;52.422;13.486;2023-05-27T13:30:09;5.00;;;2.10;;
9304;SDS011;4690;52.422;13.486;2023-05-27T13:32:38;2.72;;;2.10;;
9304;SDS011;4690;52.422;13.486;2023-05-27T13:35:05;2.85;;;1.92;;
9304;SDS011;4690;52.422;13.486;2023-05-27T13:37:31;3.08;;;2.33;;
9304;SDS011;4690;52.422;13.486;2023-05-27T13:39:56;3.65;;;2.10;;
9304;SDS011;4690;52.422;13.486;2023-05-27T13:42:23;2.30;;;2.10;;
9304;SDS011;4690;52.422;13.486;2023-05-27T13:44:49;1.90;;;1.80;;
9304;SDS011;4690;52.422;13.486;2023-05-27T13:47:15;2.20;;;1.98;;
9304;SDS011;4690;52.422;13.486;2023-05-27T13:49:41;2.50;;;2.10;;
9304;SDS011;4690;52.422;13.486;2023-05-27T13:52:06;2.85;;;2.00;;
9304;SDS011;4690;52.422;13.486;2023-05-27T13:54:32;2.30;;;1.90;;
9304;SDS011;4690;52.422;13.486;2023-05-27T13:56:58;2.42;;;1.90;;
9304;SDS011;4690;52.422;13.486;2023-05-27T13:59:23;2.30;;;2.10;;
9304;SDS011;4690;52.422;13.486;2023-05-27T14:01:49;2.30;;;2.08;;
9304;SDS011;4690;52.422;13.486;2023-05-27T14:04:15;2.80;;;2.28;;
9304;SDS011;4690;52.422;13.486;2023-05-27T14:06:41;3.30;;;2.30;;
9304;SDS011;4690;52.422;13.486;2023-05-27T14:09:07;3.40;;;2.20;;
9304;SDS011;4690;52.422;13.486;2023-05-27T14:11:33;3.20;;;2.10;;
9304;SDS011;4690;52.422;13.486;2023-05-27T14:13:58;2.42;;;2.10;;
9304;SDS011;4690;52.422;13.486;2023-05-27T14:16:24;4.00;;;2.22;;
9304;SDS011;4690;52.422;13.486;2023-05-27T14:18:51;3.63;;;2.20;;
9304;SDS011;4690;52.422;13.486;2023-05-27T14:21:17;2.22;;;1.95;;
9304;SDS011;4690;52.422;13.486;2023-05-27T14:23:43;2.42;;;2.20;;
9304;SDS011;4690;52.422;13.486;2023-05-27T14:26:10;2.75;;;1.92;;
9304;SDS011;4690;52.422;13.486;2023-05-27T14:28:36;2.75;;;1.90;;
9304;SDS011;4690;52.422;13.486;2023-05-27T14:31:02;3.47;;;2.10;;
9304;SDS011;4690;52.422;13.486;2023-05-27T14:33:28;3.38;;;1.90;;
9304;SDS011;4690;52.422;13.486;2023-05-27T14:35:54;2.75;;;2.00;;
9304;SDS011;4690;52.422;13.486;2023-05-27T14:38:20;2.10;;;1.90;;
9304;SDS011;4690;52.422;13.486;2023-05-27T14:40:46;2.25;;;2.05;;
9304;SDS011;4690;52.422;13.486;2023-05-27T14:43:12;3.97;;;1.95;;
9304;SDS011;4690;52.422;13.486;2023-05-27T14:45:40;1.95;;;1.85;;
9304;SDS011;4690;52.422;13.486;2023-05-27T14:48:06;2.10;;;1.90;;
9304;SDS011;4690;52.422;13.486;2023-05-27T14:50:32;2.20;;;2.00;;
9304;SDS011;4690;52.422;13.486;2023-05-27T14:52:59;2.70;;;2.00;;
9304;SDS011;4690;52.422;13.486;2023-05-27T14:55:25;2.10;;;1.90;;
9304;SDS011;4690;52.422;13.486;2023-05-27T14:57:51;3.80;;;2.10;;
9304;SDS011;4690;52.422;13.486;2023-05-27T15:00:17;5.10;;;2.00;;
9304;SDS011;4690;52.422;13.486;2023-05-27T15:02:43;2.10;;;1.90;;
9304;SDS011;4690;52.422;13.486;2023-05-27T15:05:09;2.80;;;1.80;;
9304;SDS011;4690;52.422;13.486;2023-05-27T15:07:36;3.42;;;2.03;;
9304;SDS011;4690;52.422;13.486;2023-05-27T15:10:03;2.05;;;1.70;;
9304;SDS011;4690;52.422;13.486;2023-05-27T15:12:40;2.95;;;1.88;;
9304;SDS011;4690;52.422;13.486;2023-05-27T15:15:14;2.33;;;1.90;;
9304;SDS011;4690;52.422;13.486;2023-05-27T15:17:43;2.17;;;1.98;;
9304;SDS011;4690;52.422;13.486;2023-05-27T15:20:10;4.18;;;2.30;;
9304;SDS011;4690;52.422;13.486;2023-05-27T15:22:37;3.47;;;2.00;;
9304;SDS011;4690;52.422;13.486;2023-05-27T15:25:04;3.10;;;2.20;;
9304;SDS011;4690;52.422;13.486;2023-05-27T15:27:30;2.63;;;1.83;;